Time,TemperatureF,DewpointF,PressureIn,WindDirection,WindDirectionDegrees,WindSpeedMPH,WindSpeedGustMPH,Humidity,HourlyPrecipIn,Conditions,Clouds,dailyrainin,SoftwareType,DateUTC
2013-02-05 00:02:00,17.0,12.0,-100.00,NNE,15,2.0,3.0,81,-99.99,,,-99.99,,2013-02-05 06:02:00,
2013-02-05 00:11:00,16.0,12.0,-100.00,NE,40,1.0,6.0,82,-99.99,,,-99.99,,2013-02-05 06:11:00,
2013-02-05 00:21:00,16.0,11.0,-100.00,NE,55,4.0,7.0,82,-99.99,,,-99.99,,2013-02-05 06:21:00,
2013-02-05 00:32:00,16.0,11.0,-100.00,NE,55,4.0,7.0,82,-99.99,,,-99.99,,2013-02-05 06:32:00,
2013-02-05 00:42:00,15.0,11.0,-100.00,NE,55,6.0,10.0,82,-99.99,,,-99.99,,2013-02-05 06:42:00,
2013-02-05 00:52:00,15.0,11.0,-100.00,NE,40,1.0,5.0,82,-99.99,,,-99.99,,2013-02-05 06:52:00,
2013-02-05 01:01:00,15.0,11.0,-100.00,NE,40,1.0,5.0,82,-99.99,,,-99.99,,2013-02-05 07:01:00,
2013-02-05 01:11:00,15.0,11.0,-100.00,SE,140,0.0,4.0,82,-99.99,,,-99.99,,2013-02-05 07:11:00,
2013-02-05 01:22:00,15.0,11.0,-100.00,NE,45,4.0,5.0,82,-99.99,,,-99.99,,2013-02-05 07:22:00,
2013-02-05 01:32:00,15.0,11.0,-100.00,NE,45,4.0,5.0,82,-99.99,,,-99.99,,2013-02-05 07:32:00,
2013-02-05 01:42:00,16.0,11.0,-100.00,ENE,65,0.0,4.0,82,-99.99,,,-99.99,,2013-02-05 07:42:00,
2013-02-05 01:52:00,15.0,11.0,-100.00,ENE,60,2.0,4.0,81,-99.99,,,-99.99,,2013-02-05 07:52:00,
2013-02-05 02:01:00,15.0,11.0,-100.00,ENE,60,2.0,4.0,81,-99.99,,,-99.99,,2013-02-05 08:01:00,
2013-02-05 02:11:00,15.0,10.0,-100.00,NE,35,4.0,4.0,80,-99.99,,,-99.99,,2013-02-05 08:11:00,
2013-02-05 02:21:00,15.0,10.0,-100.00,NNE,25,1.0,5.0,80,-99.99,,,-99.99,,2013-02-05 08:21:00,
2013-02-05 02:31:00,15.0,10.0,-100.00,NNE,25,1.0,5.0,80,-99.99,,,-99.99,,2013-02-05 08:31:00,
2013-02-05 02:41:00,15.0,10.0,-100.00,NNE,30,0.0,2.0,80,-99.99,,,-99.99,,2013-02-05 08:41:00,
2013-02-05 02:52:00,15.0,9.0,-100.00,ENE,75,1.0,1.0,79,-99.99,,,-99.99,,2013-02-05 08:52:00,
2013-02-05 03:02:00,15.0,9.0,-100.00,ENE,75,1.0,1.0,79,-99.99,,,-99.99,,2013-02-05 09:02:00,
2013-02-05 03:11:00,14.0,9.0,-100.00,SSE,160,0.0,1.0,79,-99.99,,,-99.99,,2013-02-05 09:11:00,
2013-02-05 03:21:00,14.0,9.0,-100.00,SSE,160,0.0,0.0,79,-99.99,,,-99.99,,2013-02-05 09:21:00,
2013-02-05 03:32:00,14.0,9.0,-100.00,SSE,160,0.0,0.0,79,-99.99,,,-99.99,,2013-02-05 09:32:00,
2013-02-05 03:42:00,14.0,9.0,-100.00,NNE,20,0.0,2.0,80,-99.99,,,-99.99,,2013-02-05 09:42:00,
2013-02-05 03:52:00,14.0,9.0,-100.00,SW,220,2.0,4.0,80,-99.99,,,-99.99,,2013-02-05 09:52:00,
2013-02-05 04:02:00,14.0,9.0,-100.00,SW,220,2.0,4.0,80,-99.99,,,-99.99,,2013-02-05 10:02:00,
2013-02-05 04:11:00,14.0,9.0,-100.00,SW,215,1.0,4.0,80,-99.99,,,-99.99,,2013-02-05 10:11:00,
2013-02-05 04:21:00,15.0,10.0,-100.00,SSW,210,1.0,4.0,81,-99.99,,,-99.99,,2013-02-05 10:21:00,
2013-02-05 04:32:00,15.0,10.0,-100.00,SSW,210,1.0,4.0,81,-99.99,,,-99.99,,2013-02-05 10:32:00,
2013-02-05 04:42:00,15.0,11.0,-100.00,SSW,210,2.0,4.0,81,-99.99,,,-99.99,,2013-02-05 10:42:00,
2013-02-05 04:52:00,16.0,11.0,-100.00,SW,235,1.0,3.0,81,-99.99,,,-99.99,,2013-02-05 10:52:00,
2013-02-05 05:01:00,16.0,11.0,-100.00,SW,235,1.0,3.0,81,-99.99,,,-99.99,,2013-02-05 11:01:00,
2013-02-05 05:11:00,17.0,12.0,-100.00,West,265,1.0,4.0,81,-99.99,,,-99.99,,2013-02-05 11:11:00,
2013-02-05 05:22:00,17.0,12.0,-100.00,WSW,255,1.0,2.0,81,-99.99,,,-99.99,,2013-02-05 11:22:00,
2013-02-05 05:32:00,17.0,12.0,-100.00,WSW,255,1.0,2.0,81,-99.99,,,-99.99,,2013-02-05 11:32:00,
2013-02-05 05:42:00,17.0,13.0,-100.00,SW,235,1.0,4.0,81,-99.99,,,-99.99,,2013-02-05 11:42:00,
2013-02-05 05:52:00,18.0,13.0,-100.00,WSW,240,1.0,3.0,81,-99.99,,,-99.99,,2013-02-05 11:52:00,
2013-02-05 06:01:00,18.0,13.0,-100.00,WSW,240,1.0,3.0,81,-99.99,,,-99.99,,2013-02-05 12:01:00,
2013-02-05 06:12:00,18.0,13.0,-100.00,WSW,255,0.0,2.0,81,-99.99,,,-99.99,,2013-02-05 12:12:00,
2013-02-05 06:22:00,19.0,14.0,-100.00,SE,130,0.0,2.0,81,-99.99,,,-99.99,,2013-02-05 12:22:00,
2013-02-05 06:32:00,19.0,15.0,-100.00,ESE,120,1.0,4.0,82,-99.99,,,-99.99,,2013-02-05 12:32:00,
2013-02-05 06:42:00,19.0,15.0,-100.00,ESE,120,1.0,4.0,82,-99.99,,,-99.99,,2013-02-05 12:42:00,
2013-02-05 06:52:00,19.0,15.0,-100.00,East,90,0.0,7.0,82,-99.99,,,-99.99,,2013-02-05 12:52:00,
2013-02-05 07:01:00,19.0,15.0,-100.00,East,90,0.0,7.0,82,-99.99,,,-99.99,,2013-02-05 13:01:00,
2013-02-05 07:12:00,19.0,15.0,-100.00,ENE,60,1.0,4.0,82,-99.99,,,-99.99,,2013-02-05 13:12:00,
2013-02-05 07:22:00,20.0,15.0,-100.00,SE,145,1.0,3.0,83,-99.99,,,-99.99,,2013-02-05 13:22:00,
2013-02-05 07:32:00,20.0,15.0,-100.00,SE,145,1.0,3.0,83,-99.99,,,-99.99,,2013-02-05 13:32:00,
2013-02-05 07:42:00,20.0,16.0,-100.00,SSE,155,2.0,4.0,83,-99.99,,,-99.99,,2013-02-05 13:42:00,
2013-02-05 07:52:00,21.0,17.0,-100.00,SSW,195,4.0,6.0,84,-99.99,,,-99.99,,2013-02-05 13:52:00,
2013-02-05 08:01:00,21.0,17.0,-100.00,SSW,195,4.0,6.0,84,-99.99,,,-99.99,,2013-02-05 14:01:00,
2013-02-05 08:12:00,22.0,18.0,-100.00,SSW,195,5.0,8.0,84,-99.99,,,-99.99,,2013-02-05 14:12:00,
2013-02-05 08:21:00,23.0,19.0,-100.00,SSW,200,5.0,11.0,84,-99.99,,,-99.99,,2013-02-05 14:21:00,
2013-02-05 08:32:00,23.0,19.0,-100.00,SSW,200,5.0,11.0,84,-99.99,,,-99.99,,2013-02-05 14:32:00,
2013-02-05 08:42:00,24.0,19.0,-100.00,SSW,200,4.0,9.0,84,-99.99,,,-99.99,,2013-02-05 14:42:00,
2013-02-05 08:52:00,24.0,20.0,-100.00,SW,215,4.0,11.0,84,-99.99,,,-99.99,,2013-02-05 14:52:00,
2013-02-05 09:02:00,24.0,20.0,-100.00,SW,215,4.0,11.0,84,-99.99,,,-99.99,,2013-02-05 15:02:00,
2013-02-05 09:11:00,25.0,20.0,-100.00,South,190,4.0,9.0,84,-99.99,,,-99.99,,2013-02-05 15:11:00,
2013-02-05 09:21:00,25.0,21.0,-100.00,SW,225,4.0,12.0,84,-99.99,,,-99.99,,2013-02-05 15:21:00,
2013-02-05 09:32:00,25.0,21.0,-100.00,SW,225,4.0,12.0,84,-99.99,,,-99.99,,2013-02-05 15:32:00,
2013-02-05 09:41:00,26.0,22.0,-100.00,South,185,5.0,11.0,84,-99.99,,,-99.99,,2013-02-05 15:41:00,
2013-02-05 09:52:00,28.0,24.0,-100.00,South,185,6.0,15.0,85,-99.99,,,-99.99,,2013-02-05 15:52:00,
2013-02-05 10:01:00,28.0,24.0,-100.00,South,185,6.0,15.0,85,-99.99,,,-99.99,,2013-02-05 16:01:00,
2013-02-05 10:11:00,29.0,25.0,-100.00,SSW,210,6.0,18.0,84,-99.99,,,-99.99,,2013-02-05 16:11:00,
2013-02-05 10:22:00,30.0,25.0,-100.00,SW,230,6.0,17.0,81,-99.99,,,-99.99,,2013-02-05 16:22:00,
2013-02-05 10:32:00,30.0,25.0,-100.00,SW,230,6.0,17.0,81,-99.99,,,-99.99,,2013-02-05 16:32:00,
2013-02-05 10:42:00,30.0,24.0,-100.00,SW,230,9.0,22.0,79,-99.99,,,-99.99,,2013-02-05 16:42:00,
2013-02-05 10:52:00,33.0,26.0,-100.00,SW,215,6.0,15.0,78,-99.99,,,-99.99,,2013-02-05 16:52:00,
2013-02-05 11:01:00,33.0,26.0,-100.00,SW,215,6.0,15.0,78,-99.99,,,-99.99,,2013-02-05 17:01:00,
2013-02-05 11:11:00,32.0,25.0,-100.00,SW,230,7.0,21.0,75,-99.99,,,-99.99,,2013-02-05 17:11:00,
2013-02-05 11:22:00,33.0,26.0,-100.00,SW,230,7.0,21.0,74,-99.99,,,-99.99,,2013-02-05 17:22:00,
2013-02-05 11:32:00,33.0,26.0,-100.00,SW,230,7.0,21.0,74,-99.99,,,-99.99,,2013-02-05 17:32:00,
2013-02-05 11:42:00,36.0,27.0,-100.00,SW,225,5.0,19.0,71,-99.99,,,-99.99,,2013-02-05 17:42:00,
2013-02-05 11:52:00,36.0,26.0,-100.00,SW,220,9.0,23.0,66,-99.99,,,-99.99,,2013-02-05 17:52:00,
2013-02-05 12:02:00,36.0,26.0,-100.00,SW,220,9.0,23.0,66,-99.99,,,-99.99,,2013-02-05 18:02:00,
2013-02-05 12:11:00,35.0,25.0,-100.00,WSW,240,5.0,11.0,66,-99.99,,,-99.99,,2013-02-05 18:11:00,
2013-02-05 12:22:00,34.0,24.0,-100.00,SW,230,6.0,16.0,66,-99.99,,,-99.99,,2013-02-05 18:22:00,
2013-02-05 12:31:00,34.0,25.0,-100.00,WSW,250,5.0,18.0,69,-99.99,,,-99.99,,2013-02-05 18:31:00,
2013-02-05 12:32:00,34.0,24.0,-100.00,SW,230,6.0,16.0,66,-99.99,,,-99.99,,2013-02-05 18:32:00,
2013-02-05 12:42:00,34.0,25.0,-100.00,SW,235,1.0,12.0,68,-99.99,,,-99.99,,2013-02-05 18:42:00,
2013-02-05 12:52:00,34.0,25.0,-100.00,WSW,255,8.0,14.0,69,-99.99,,,-99.99,,2013-02-05 18:52:00,
2013-02-05 13:02:00,34.0,25.0,-100.00,WSW,255,8.0,14.0,69,-99.99,,,-99.99,,2013-02-05 19:02:00,
2013-02-05 13:11:00,34.0,25.0,-100.00,WSW,250,5.0,18.0,69,-99.99,,,-99.99,,2013-02-05 19:11:00,
2013-02-05 13:21:00,34.0,25.0,-100.00,WSW,250,5.0,18.0,69,-99.99,,,-99.99,,2013-02-05 19:21:00,
2013-02-05 13:42:00,34.0,26.0,-100.00,WSW,240,9.0,18.0,71,-99.99,,,-99.99,,2013-02-05 19:42:00,
2013-02-05 13:52:00,35.0,26.0,-100.00,WSW,250,4.0,10.0,71,-99.99,,,-99.99,,2013-02-05 19:52:00,
2013-02-05 14:01:00,35.0,26.0,-100.00,WSW,250,4.0,10.0,71,-99.99,,,-99.99,,2013-02-05 20:01:00,
2013-02-05 14:11:00,35.0,27.0,-100.00,West,270,9.0,16.0,71,-99.99,,,-99.99,,2013-02-05 20:11:00,
2013-02-05 14:21:00,36.0,27.0,-100.00,West,275,9.0,19.0,70,-99.99,,,-99.99,,2013-02-05 20:21:00,
2013-02-05 14:32:00,36.0,27.0,-100.00,West,275,9.0,19.0,70,-99.99,,,-99.99,,2013-02-05 20:32:00,
2013-02-05 14:42:00,36.0,27.0,-100.00,WSW,250,9.0,17.0,69,-99.99,,,-99.99,,2013-02-05 20:42:00,
2013-02-05 14:52:00,36.0,27.0,-100.00,WNW,285,6.0,21.0,69,-99.99,,,-99.99,,2013-02-05 20:52:00,
2013-02-05 15:02:00,36.0,27.0,-100.00,WNW,285,6.0,21.0,69,-99.99,,,-99.99,,2013-02-05 21:02:00,
2013-02-05 15:11:00,36.0,26.0,-100.00,WNW,285,11.0,20.0,69,-99.99,,,-99.99,,2013-02-05 21:11:00,
2013-02-05 15:22:00,35.0,26.0,-100.00,NW,310,8.0,20.0,70,-99.99,,,-99.99,,2013-02-05 21:22:00,
2013-02-05 15:32:00,35.0,26.0,-100.00,NW,310,8.0,20.0,70,-99.99,,,-99.99,,2013-02-05 21:32:00,
2013-02-05 15:42:00,36.0,27.0,-100.00,WSW,255,9.0,19.0,70,-99.99,,,-99.99,,2013-02-05 21:42:00,
2013-02-05 15:52:00,36.0,27.0,-100.00,WNW,290,7.0,16.0,70,-99.99,,,-99.99,,2013-02-05 21:52:00,
2013-02-05 16:01:00,36.0,27.0,-100.00,WNW,290,7.0,16.0,70,-99.99,,,-99.99,,2013-02-05 22:01:00,
2013-02-05 16:11:00,36.0,27.0,-100.00,NW,320,6.0,19.0,70,-99.99,,,-99.99,,2013-02-05 22:11:00,
2013-02-05 16:22:00,35.0,28.0,-100.00,NW,305,7.0,14.0,74,-99.99,,,-99.99,,2013-02-05 22:22:00,
2013-02-05 16:32:00,35.0,28.0,-100.00,NW,305,7.0,14.0,74,-99.99,,,-99.99,,2013-02-05 22:32:00,
2013-02-05 16:42:00,35.0,28.0,-100.00,NW,305,9.0,16.0,76,-99.99,,,-99.99,,2013-02-05 22:42:00,
2013-02-05 16:52:00,35.0,28.0,-100.00,NW,305,6.0,14.0,76,-99.99,,,-99.99,,2013-02-05 22:52:00,
2013-02-05 17:02:00,35.0,28.0,-100.00,NW,305,6.0,14.0,76,-99.99,,,-99.99,,2013-02-05 23:02:00,
2013-02-05 17:11:00,35.0,28.0,-100.00,WNW,295,6.0,16.0,76,-99.99,,,-99.99,,2013-02-05 23:11:00,
2013-02-05 17:22:00,34.0,27.0,-100.00,WNW,285,9.0,18.0,76,-99.99,,,-99.99,,2013-02-05 23:22:00,
2013-02-05 17:32:00,34.0,27.0,-100.00,WNW,285,9.0,18.0,76,-99.99,,,-99.99,,2013-02-05 23:32:00,
2013-02-05 17:42:00,34.0,27.0,-100.00,NNW,330,7.0,19.0,77,-99.99,,,-99.99,,2013-02-05 23:42:00,
2013-02-05 17:53:00,34.0,28.0,-100.00,NNW,330,11.0,23.0,78,-99.99,,,-99.99,,2013-02-05 23:53:00,
2013-02-05 18:02:00,34.0,28.0,-100.00,NNW,330,11.0,23.0,78,-99.99,,,-99.99,,2013-02-06 00:02:00,
2013-02-05 18:11:00,33.0,27.0,-100.00,North,355,9.0,18.0,78,-99.99,,,-99.99,,2013-02-06 00:11:00,
2013-02-05 18:22:00,33.0,27.0,-100.00,NW,320,6.0,19.0,79,-99.99,,,-99.99,,2013-02-06 00:22:00,
2013-02-05 18:32:00,33.0,27.0,-100.00,NW,320,6.0,19.0,79,-99.99,,,-99.99,,2013-02-06 00:32:00,
2013-02-05 18:42:00,32.0,26.0,-100.00,NNW,335,8.0,16.0,79,-99.99,,,-99.99,,2013-02-06 00:42:00,
2013-02-05 18:52:00,32.0,26.0,-100.00,WNW,285,8.0,19.0,79,-99.99,,,-99.99,,2013-02-06 00:52:00,
2013-02-05 19:02:00,32.0,26.0,-100.00,WNW,285,8.0,19.0,79,-99.99,,,-99.99,,2013-02-06 01:02:00,
2013-02-05 19:11:00,32.0,26.0,-100.00,NNW,330,6.0,19.0,79,-99.99,,,-99.99,,2013-02-06 01:11:00,
2013-02-05 19:22:00,32.0,26.0,-100.00,NNW,330,7.0,14.0,79,-99.99,,,-99.99,,2013-02-06 01:22:00,
2013-02-05 19:32:00,32.0,26.0,-100.00,NNW,330,7.0,14.0,79,-99.99,,,-99.99,,2013-02-06 01:32:00,
2013-02-05 19:42:00,32.0,26.0,-100.00,NW,315,5.0,12.0,79,-99.99,,,-99.99,,2013-02-06 01:42:00,
2013-02-05 19:53:00,32.0,26.0,-100.00,North,350,3.0,8.0,78,-99.99,,,-99.99,,2013-02-06 01:53:00,
2013-02-05 20:01:00,32.0,26.0,-100.00,North,350,3.0,8.0,78,-99.99,,,-99.99,,2013-02-06 02:01:00,
2013-02-05 20:11:00,33.0,26.0,-100.00,NW,320,5.0,9.0,78,-99.99,,,-99.99,,2013-02-06 02:11:00,
2013-02-05 20:22:00,33.0,26.0,-100.00,NW,305,1.0,6.0,78,-99.99,,,-99.99,,2013-02-06 02:22:00,
2013-02-05 20:32:00,33.0,26.0,-100.00,NW,305,1.0,6.0,78,-99.99,,,-99.99,,2013-02-06 02:32:00,
2013-02-05 20:42:00,33.0,26.0,-100.00,WNW,285,2.0,7.0,78,-99.99,,,-99.99,,2013-02-06 02:42:00,
2013-02-05 20:52:00,33.0,26.0,-100.00,NNW,340,2.0,5.0,78,-99.99,,,-99.99,,2013-02-06 02:52:00,
2013-02-05 21:02:00,33.0,26.0,-100.00,NNW,340,2.0,5.0,78,-99.99,,,-99.99,,2013-02-06 03:02:00,
2013-02-05 21:12:00,33.0,26.0,-100.00,NNE,30,2.0,5.0,78,-99.99,,,-99.99,,2013-02-06 03:12:00,
2013-02-05 21:22:00,33.0,27.0,-100.00,NNE,30,1.0,2.0,79,-99.99,,,-99.99,,2013-02-06 03:22:00,
2013-02-05 21:32:00,33.0,27.0,-100.00,NNE,30,1.0,2.0,79,-99.99,,,-99.99,,2013-02-06 03:32:00,
2013-02-05 21:42:00,33.0,27.0,-100.00,NNW,330,1.0,4.0,79,-99.99,,,-99.99,,2013-02-06 03:42:00,
2013-02-05 21:53:00,33.0,27.0,-100.00,West,275,4.0,7.0,79,-99.99,,,-99.99,,2013-02-06 03:53:00,
2013-02-05 22:02:00,33.0,27.0,-100.00,West,275,4.0,7.0,79,-99.99,,,-99.99,,2013-02-06 04:02:00,
2013-02-05 22:11:00,33.0,27.0,-100.00,West,275,1.0,4.0,79,-99.99,,,-99.99,,2013-02-06 04:11:00,
2013-02-05 22:21:00,33.0,27.0,-100.00,West,275,3.0,4.0,79,-99.99,,,-99.99,,2013-02-06 04:21:00,
2013-02-05 22:32:00,33.0,27.0,-100.00,West,275,3.0,4.0,79,-99.99,,,-99.99,,2013-02-06 04:32:00,
2013-02-05 22:42:00,33.0,27.0,-100.00,WNW,300,4.0,7.0,79,-99.99,,,-99.99,,2013-02-06 04:42:00,
2013-02-05 22:52:00,33.0,27.0,-100.00,WNW,295,1.0,6.0,79,-99.99,,,-99.99,,2013-02-06 04:52:00,
2013-02-05 23:02:00,33.0,27.0,-100.00,WNW,295,1.0,6.0,79,-99.99,,,-99.99,,2013-02-06 05:02:00,
2013-02-05 23:12:00,33.0,27.0,-100.00,NW,315,4.0,9.0,79,-99.99,,,-99.99,,2013-02-06 05:12:00,
2013-02-05 23:22:00,33.0,27.0,-100.00,NW,315,5.0,8.0,78,-99.99,,,-99.99,,2013-02-06 05:22:00,
2013-02-05 23:32:00,33.0,27.0,-100.00,NW,315,5.0,8.0,78,-99.99,,,-99.99,,2013-02-06 05:32:00,
2013-02-05 23:41:00,33.0,26.0,-100.00,NNW,335,6.0,13.0,77,-99.99,,,-99.99,,2013-02-06 05:41:00,
2013-02-05 23:53:00,32.0,26.0,-100.00,NNW,335,6.0,10.0,76,-99.99,,,-99.99,,2013-02-06 05:53:00,